Deer Lodge (38S)
Deer Lodge, MT
Field Elevation: 4692
Lat: 49°23.27N  Long: 112°45.89W
CTAF/Unicom Freq: 120.0250
   
     For Weather-by-Phone, call 406-846-1177
Weather Advisories
2015-04-01   03:05 Z
Altimeter 29.85" Hg
Wind 300° @ 23 KT
Gusts 35 KT
Visibility 10 SM
Temperature 3° C (37° F)
Dewpoint -1° C (30° F)
Relative Humidity 73%
Density Altitude --
Condensation Altitude 6,900 feet
Wind Chill: -4° C (25° F)
Wind and Runways
Indicated Runway = 31
Headwind = 23 kt
Crosswind = 4 kt
History
 
 
 
More Info
All DigiWx sites map
Weather Radar
NOAA Forecast
 
Airport IQ 5010
(S59) Libby
(6S5) Ravalli County
 
about DigiWx
 
FAA Disclaimer: The data displayed is for advisory purposes only and is not to be used for flight planning or operations. For official data, please call 406-846-1177 to hear the current automated AWOS voice message.
  METAR 38S 010305Z AUTO 30023G35KT VIS 10 SM 03/M01 A2985